sensor_id;sensor_type;location;lat;lon;timestamp;P1;durP1;ratioP1;P2;durP2;ratioP2
59856;SDS011;45733;52.668;6.860;2023-07-13T00:01:46;1.00;;;1.00;;
59856;SDS011;45733;52.668;6.860;2023-07-13T00:04:15;1.10;;;1.10;;
59856;SDS011;45733;52.668;6.860;2023-07-13T00:06:45;1.10;;;1.10;;
59856;SDS011;45733;52.668;6.860;2023-07-13T00:09:15;1.08;;;1.08;;
59856;SDS011;45733;52.668;6.860;2023-07-13T00:11:42;1.10;;;1.10;;
59856;SDS011;45733;52.668;6.860;2023-07-13T00:14:09;4.03;;;3.65;;
59856;SDS011;45733;52.668;6.860;2023-07-13T00:16:39;1.10;;;1.10;;
59856;SDS011;45733;52.668;6.860;2023-07-13T00:19:07;1.10;;;1.10;;
59856;SDS011;45733;52.668;6.860;2023-07-13T00:21:36;1.10;;;1.10;;
59856;SDS011;45733;52.668;6.860;2023-07-13T00:24:03;1.17;;;1.17;;
59856;SDS011;45733;52.668;6.860;2023-07-13T00:26:46;1.10;;;1.10;;
59856;SDS011;45733;52.668;6.860;2023-07-13T00:29:20;1.10;;;1.10;;
59856;SDS011;45733;52.668;6.860;2023-07-13T00:31:46;1.20;;;1.20;;
59856;SDS011;45733;52.668;6.860;2023-07-13T00:34:19;1.10;;;1.10;;
59856;SDS011;45733;52.668;6.860;2023-07-13T00:36:44;1.10;;;1.10;;
59856;SDS011;45733;52.668;6.860;2023-07-13T00:39:10;1.20;;;1.20;;
59856;SDS011;45733;52.668;6.860;2023-07-13T00:41:36;1.20;;;1.20;;
59856;SDS011;45733;52.668;6.860;2023-07-13T00:44:05;1.30;;;1.30;;
59856;SDS011;45733;52.668;6.860;2023-07-13T00:46:34;1.20;;;1.20;;
59856;SDS011;45733;52.668;6.860;2023-07-13T00:49:07;1.20;;;1.20;;
59856;SDS011;45733;52.668;6.860;2023-07-13T00:51:47;1.20;;;1.20;;
59856;SDS011;45733;52.668;6.860;2023-07-13T00:57:11;1.40;;;1.35;;
59856;SDS011;45733;52.668;6.860;2023-07-13T00:59:51;1.30;;;1.30;;
59856;SDS011;45733;52.668;6.860;2023-07-13T01:02:27;1.40;;;1.40;;
59856;SDS011;45733;52.668;6.860;2023-07-13T01:04:54;1.50;;;1.40;;
59856;SDS011;45733;52.668;6.860;2023-07-13T01:07:27;1.50;;;1.40;;
59856;SDS011;45733;52.668;6.860;2023-07-13T01:09:52;1.55;;;1.45;;
59856;SDS011;45733;52.668;6.860;2023-07-13T01:12:18;1.70;;;1.60;;
59856;SDS011;45733;52.668;6.860;2023-07-13T01:14:44;1.70;;;1.60;;
59856;SDS011;45733;52.668;6.860;2023-07-13T01:17:13;1.60;;;1.50;;
59856;SDS011;45733;52.668;6.860;2023-07-13T01:19:51;1.63;;;1.52;;
59856;SDS011;45733;52.668;6.860;2023-07-13T01:22:20;1.80;;;1.70;;
59856;SDS011;45733;52.668;6.860;2023-07-13T01:24:51;1.60;;;1.50;;
59856;SDS011;45733;52.668;6.860;2023-07-13T01:27:20;1.70;;;1.60;;
59856;SDS011;45733;52.668;6.860;2023-07-13T01:29:56;1.60;;;1.50;;
59856;SDS011;45733;52.668;6.860;2023-07-13T01:32:41;1.80;;;1.70;;
59856;SDS011;45733;52.668;6.860;2023-07-13T01:35:07;1.70;;;1.60;;
59856;SDS011;45733;52.668;6.860;2023-07-13T01:37:34;1.70;;;1.60;;
59856;SDS011;45733;52.668;6.860;2023-07-13T01:40:02;1.48;;;1.40;;
59856;SDS011;45733;52.668;6.860;2023-07-13T01:42:37;1.58;;;1.48;;
59856;SDS011;45733;52.668;6.860;2023-07-13T01:45:11;1.70;;;1.60;;
59856;SDS011;45733;52.668;6.860;2023-07-13T01:47:40;1.65;;;1.55;;
59856;SDS011;45733;52.668;6.860;2023-07-13T01:50:12;1.90;;;1.80;;
59856;SDS011;45733;52.668;6.860;2023-07-13T01:52:39;2.15;;;2.05;;
59856;SDS011;45733;52.668;6.860;2023-07-13T01:55:05;2.40;;;2.30;;
59856;SDS011;45733;52.668;6.860;2023-07-13T01:57:31;2.20;;;2.10;;
59856;SDS011;45733;52.668;6.860;2023-07-13T01:59:57;2.00;;;1.90;;
59856;SDS011;45733;52.668;6.860;2023-07-13T02:02:22;1.90;;;1.80;;
59856;SDS011;45733;52.668;6.860;2023-07-13T02:04:48;2.00;;;1.90;;
59856;SDS011;45733;52.668;6.860;2023-07-13T02:07:17;2.30;;;2.20;;
59856;SDS011;45733;52.668;6.860;2023-07-13T02:09:43;2.30;;;2.20;;
59856;SDS011;45733;52.668;6.860;2023-07-13T02:12:12;2.40;;;2.30;;
59856;SDS011;45733;52.668;6.860;2023-07-13T02:14:37;2.42;;;2.33;;
59856;SDS011;45733;52.668;6.860;2023-07-13T02:17:06;2.28;;;2.17;;
59856;SDS011;45733;52.668;6.860;2023-07-13T02:19:34;2.85;;;2.65;;
59856;SDS011;45733;52.668;6.860;2023-07-13T02:22:00;2.35;;;2.25;;
59856;SDS011;45733;52.668;6.860;2023-07-13T02:24:25;2.10;;;2.00;;
59856;SDS011;45733;52.668;6.860;2023-07-13T02:26:52;2.55;;;2.45;;
59856;SDS011;45733;52.668;6.860;2023-07-13T02:29:17;2.95;;;2.75;;
59856;SDS011;45733;52.668;6.860;2023-07-13T02:31:43;2.05;;;1.95;;
59856;SDS011;45733;52.668;6.860;2023-07-13T02:34:15;2.63;;;2.50;;
59856;SDS011;45733;52.668;6.860;2023-07-13T02:36:41;2.33;;;2.22;;
59856;SDS011;45733;52.668;6.860;2023-07-13T02:39:06;2.50;;;2.40;;
59856;SDS011;45733;52.668;6.860;2023-07-13T02:41:35;2.20;;;2.10;;
59856;SDS011;45733;52.668;6.860;2023-07-13T02:44:02;2.40;;;2.30;;
59856;SDS011;45733;52.668;6.860;2023-07-13T02:46:29;2.20;;;2.10;;
59856;SDS011;45733;52.668;6.860;2023-07-13T02:48:56;2.28;;;2.17;;
59856;SDS011;45733;52.668;6.860;2023-07-13T02:51:24;2.33;;;2.22;;
59856;SDS011;45733;52.668;6.860;2023-07-13T02:53:50;2.90;;;2.70;;
59856;SDS011;45733;52.668;6.860;2023-07-13T02:56:18;2.90;;;2.70;;
59856;SDS011;45733;52.668;6.860;2023-07-13T02:58:47;2.10;;;2.00;;
59856;SDS011;45733;52.668;6.860;2023-07-13T03:01:12;1.90;;;1.80;;
59856;SDS011;45733;52.668;6.860;2023-07-13T03:03:46;1.98;;;1.88;;
59856;SDS011;45733;52.668;6.860;2023-07-13T03:06:13;1.83;;;1.73;;
59856;SDS011;45733;52.668;6.860;2023-07-13T03:08:40;1.98;;;1.88;;
59856;SDS011;45733;52.668;6.860;2023-07-13T03:11:07;1.83;;;1.73;;
59856;SDS011;45733;52.668;6.860;2023-07-13T03:13:36;2.08;;;1.98;;
59856;SDS011;45733;52.668;6.860;2023-07-13T03:16:02;1.85;;;1.75;;
59856;SDS011;45733;52.668;6.860;2023-07-13T03:18:28;1.95;;;1.85;;
59856;SDS011;45733;52.668;6.860;2023-07-13T03:20:54;2.03;;;1.92;;
59856;SDS011;45733;52.668;6.860;2023-07-13T03:23:20;2.22;;;2.13;;
59856;SDS011;45733;52.668;6.860;2023-07-13T03:25:47;2.17;;;2.08;;
59856;SDS011;45733;52.668;6.860;2023-07-13T03:28:26;2.38;;;2.28;;
59856;SDS011;45733;52.668;6.860;2023-07-13T03:30:58;2.42;;;2.33;;
59856;SDS011;45733;52.668;6.860;2023-07-13T03:33:29;2.45;;;2.35;;
59856;SDS011;45733;52.668;6.860;2023-07-13T03:35:55;2.70;;;2.55;;
59856;SDS011;45733;52.668;6.860;2023-07-13T03:38:21;2.85;;;2.65;;
59856;SDS011;45733;52.668;6.860;2023-07-13T03:40:47;2.97;;;2.78;;
59856;SDS011;45733;52.668;6.860;2023-07-13T03:43:22;3.13;;;2.92;;
59856;SDS011;45733;52.668;6.860;2023-07-13T03:45:47;3.22;;;3.03;;
59856;SDS011;45733;52.668;6.860;2023-07-13T03:48:15;3.30;;;3.10;;
59856;SDS011;45733;52.668;6.860;2023-07-13T03:50:41;3.40;;;3.20;;
59856;SDS011;45733;52.668;6.860;2023-07-13T03:53:14;3.78;;;3.58;;
59856;SDS011;45733;52.668;6.860;2023-07-13T03:55:40;3.72;;;3.53;;
59856;SDS011;45733;52.668;6.860;2023-07-13T04:01:17;3.63;;;3.42;;
59856;SDS011;45733;52.668;6.860;2023-07-13T04:04:06;4.03;;;3.78;;
59856;SDS011;45733;52.668;6.860;2023-07-13T04:07:19;3.90;;;3.70;;
59856;SDS011;45733;52.668;6.860;2023-07-13T04:09:29;3.90;;;3.70;;
59856;SDS011;45733;52.668;6.860;2023-07-13T04:11:55;4.13;;;3.83;;
59856;SDS011;45733;52.668;6.860;2023-07-13T04:14:21;4.20;;;3.90;;
59856;SDS011;45733;52.668;6.860;2023-07-13T04:16:50;4.32;;;4.03;;
59856;SDS011;45733;52.668;6.860;2023-07-13T04:19:22;4.20;;;3.90;;
59856;SDS011;45733;52.668;6.860;2023-07-13T04:21:54;4.28;;;3.97;;
59856;SDS011;45733;52.668;6.860;2023-07-13T04:24:35;4.22;;;3.92;;
59856;SDS011;45733;52.668;6.860;2023-07-13T04:27:01;4.20;;;3.90;;
59856;SDS011;45733;52.668;6.860;2023-07-13T04:29:40;4.13;;;3.85;;
59856;SDS011;45733;52.668;6.860;2023-07-13T04:32:09;4.18;;;3.88;;
59856;SDS011;45733;52.668;6.860;2023-07-13T04:34:34;4.10;;;3.83;;
59856;SDS011;45733;52.668;6.860;2023-07-13T04:37:06;4.05;;;3.80;;
59856;SDS011;45733;52.668;6.860;2023-07-13T04:39:32;4.22;;;3.92;;
59856;SDS011;45733;52.668;6.860;2023-07-13T04:42:03;4.00;;;3.75;;
59856;SDS011;45733;52.668;6.860;2023-07-13T04:44:33;4.05;;;3.80;;
59856;SDS011;45733;52.668;6.860;2023-07-13T04:47:14;3.75;;;3.55;;
59856;SDS011;45733;52.668;6.860;2023-07-13T04:49:46;3.75;;;3.55;;
59856;SDS011;45733;52.668;6.860;2023-07-13T04:52:12;3.55;;;3.35;;
59856;SDS011;45733;52.668;6.860;2023-07-13T04:54:55;3.78;;;3.58;;
59856;SDS011;45733;52.668;6.860;2023-07-13T04:57:20;3.65;;;3.45;;
59856;SDS011;45733;52.668;6.860;2023-07-13T04:59:46;4.55;;;4.25;;
59856;SDS011;45733;52.668;6.860;2023-07-13T05:02:12;3.63;;;3.42;;
59856;SDS011;45733;52.668;6.860;2023-07-13T05:04:40;3.70;;;3.50;;
59856;SDS011;45733;52.668;6.860;2023-07-13T05:07:09;3.63;;;3.42;;
59856;SDS011;45733;52.668;6.860;2023-07-13T05:09:38;4.32;;;4.03;;
59856;SDS011;45733;52.668;6.860;2023-07-13T05:12:08;4.47;;;4.18;;
59856;SDS011;45733;52.668;6.860;2023-07-13T05:14:36;3.83;;;3.63;;
59856;SDS011;45733;52.668;6.860;2023-07-13T05:17:08;4.55;;;4.25;;
59856;SDS011;45733;52.668;6.860;2023-07-13T05:19:37;4.18;;;3.88;;
59856;SDS011;45733;52.668;6.860;2023-07-13T05:22:03;3.40;;;3.20;;
59856;SDS011;45733;52.668;6.860;2023-07-13T05:24:38;2.97;;;2.78;;
59856;SDS011;45733;52.668;6.860;2023-07-13T05:27:07;3.10;;;2.90;;
59856;SDS011;45733;52.668;6.860;2023-07-13T05:29:35;2.47;;;2.38;;
59856;SDS011;45733;52.668;6.860;2023-07-13T05:32:10;2.10;;;2.00;;
59856;SDS011;45733;52.668;6.860;2023-07-13T05:34:39;2.30;;;2.20;;
59856;SDS011;45733;52.668;6.860;2023-07-13T05:37:04;2.25;;;2.15;;
59856;SDS011;45733;52.668;6.860;2023-07-13T05:39:36;2.33;;;2.22;;
59856;SDS011;45733;52.668;6.860;2023-07-13T05:42:02;2.33;;;2.22;;
59856;SDS011;45733;52.668;6.860;2023-07-13T05:44:30;2.58;;;2.47;;
59856;SDS011;45733;52.668;6.860;2023-07-13T05:46:56;2.80;;;2.60;;
59856;SDS011;45733;52.668;6.860;2023-07-13T05:49:30;2.90;;;2.70;;
59856;SDS011;45733;52.668;6.860;2023-07-13T05:51:59;2.80;;;2.60;;
59856;SDS011;45733;52.668;6.860;2023-07-13T05:54:34;2.85;;;2.65;;
59856;SDS011;45733;52.668;6.860;2023-07-13T05:57:09;2.80;;;2.60;;
59856;SDS011;45733;52.668;6.860;2023-07-13T05:59:35;2.80;;;2.60;;
59856;SDS011;45733;52.668;6.860;2023-07-13T06:02:01;2.58;;;2.47;;
59856;SDS011;45733;52.668;6.860;2023-07-13T06:04:26;3.03;;;2.83;;
59856;SDS011;45733;52.668;6.860;2023-07-13T06:07:04;2.45;;;2.35;;
59856;SDS011;45733;52.668;6.860;2023-07-13T06:09:34;2.42;;;2.33;;
59856;SDS011;45733;52.668;6.860;2023-07-13T06:12:00;2.42;;;2.33;;
59856;SDS011;45733;52.668;6.860;2023-07-13T06:14:28;2.38;;;2.28;;
59856;SDS011;45733;52.668;6.860;2023-07-13T06:17:19;2.35;;;2.25;;
59856;SDS011;45733;52.668;6.860;2023-07-13T06:19:45;2.25;;;2.15;;
59856;SDS011;45733;52.668;6.860;2023-07-13T06:22:14;2.20;;;2.10;;
59856;SDS011;45733;52.668;6.860;2023-07-13T06:24:39;2.40;;;2.30;;
59856;SDS011;45733;52.668;6.860;2023-07-13T06:27:05;2.10;;;2.00;;
59856;SDS011;45733;52.668;6.860;2023-07-13T06:29:31;2.20;;;2.10;;
59856;SDS011;45733;52.668;6.860;2023-07-13T06:31:56;2.00;;;1.90;;
59856;SDS011;45733;52.668;6.860;2023-07-13T06:34:31;2.08;;;1.98;;
59856;SDS011;45733;52.668;6.860;2023-07-13T06:36:57;2.08;;;1.98;;
59856;SDS011;45733;52.668;6.860;2023-07-13T06:39:23;2.20;;;2.10;;
59856;SDS011;45733;52.668;6.860;2023-07-13T06:41:48;1.88;;;1.77;;
59856;SDS011;45733;52.668;6.860;2023-07-13T06:44:14;2.08;;;1.98;;
59856;SDS011;45733;52.668;6.860;2023-07-13T06:46:40;2.03;;;1.92;;
59856;SDS011;45733;52.668;6.860;2023-07-13T06:49:05;1.88;;;1.77;;
59856;SDS011;45733;52.668;6.860;2023-07-13T06:51:36;1.80;;;1.70;;
59856;SDS011;45733;52.668;6.860;2023-07-13T06:54:31;1.80;;;1.70;;
59856;SDS011;45733;52.668;6.860;2023-07-13T06:57:00;1.70;;;1.60;;
59856;SDS011;45733;52.668;6.860;2023-07-13T06:59:41;1.73;;;1.63;;
59856;SDS011;45733;52.668;6.860;2023-07-13T07:02:10;1.73;;;1.63;;
59856;SDS011;45733;52.668;6.860;2023-07-13T07:04:39;1.73;;;1.63;;
59856;SDS011;45733;52.668;6.860;2023-07-13T07:07:04;1.80;;;1.70;;
59856;SDS011;45733;52.668;6.860;2023-07-13T07:09:30;1.73;;;1.63;;
59856;SDS011;45733;52.668;6.860;2023-07-13T07:11:56;1.77;;;1.67;;
59856;SDS011;45733;52.668;6.860;2023-07-13T07:14:22;2.00;;;1.90;;
59856;SDS011;45733;52.668;6.860;2023-07-13T07:16:49;1.92;;;1.83;;
59856;SDS011;45733;52.668;6.860;2023-07-13T07:19:25;2.05;;;1.95;;
59856;SDS011;45733;52.668;6.860;2023-07-13T07:22:00;2.03;;;1.92;;
59856;SDS011;45733;52.668;6.860;2023-07-13T07:24:26;2.13;;;2.03;;
59856;SDS011;45733;52.668;6.860;2023-07-13T07:26:51;2.05;;;1.95;;
59856;SDS011;45733;52.668;6.860;2023-07-13T07:29:23;2.08;;;1.98;;
59856;SDS011;45733;52.668;6.860;2023-07-13T07:34:17;1.60;;;1.50;;
59856;SDS011;45733;52.668;6.860;2023-07-13T07:36:42;1.80;;;1.70;;
59856;SDS011;45733;52.668;6.860;2023-07-13T07:39:08;1.88;;;1.77;;
59856;SDS011;45733;52.668;6.860;2023-07-13T07:41:37;2.00;;;1.90;;
59856;SDS011;45733;52.668;6.860;2023-07-13T07:44:03;1.83;;;1.73;;
59856;SDS011;45733;52.668;6.860;2023-07-13T07:46:29;2.00;;;1.90;;
59856;SDS011;45733;52.668;6.860;2023-07-13T07:48:58;1.70;;;1.60;;
59856;SDS011;45733;52.668;6.860;2023-07-13T07:51:30;1.75;;;1.65;;
59856;SDS011;45733;52.668;6.860;2023-07-13T07:53:59;1.80;;;1.70;;
59856;SDS011;45733;52.668;6.860;2023-07-13T07:56:31;1.75;;;1.65;;
59856;SDS011;45733;52.668;6.860;2023-07-13T07:59:02;1.70;;;1.60;;
59856;SDS011;45733;52.668;6.860;2023-07-13T08:01:28;1.75;;;1.65;;
59856;SDS011;45733;52.668;6.860;2023-07-13T08:03:54;1.98;;;1.88;;
59856;SDS011;45733;52.668;6.860;2023-07-13T08:06:20;2.00;;;1.90;;
59856;SDS011;45733;52.668;6.860;2023-07-13T08:08:47;2.03;;;1.92;;
59856;SDS011;45733;52.668;6.860;2023-07-13T08:11:25;1.80;;;1.70;;
59856;SDS011;45733;52.668;6.860;2023-07-13T08:13:51;1.92;;;1.83;;
59856;SDS011;45733;52.668;6.860;2023-07-13T08:16:16;1.80;;;1.70;;
59856;SDS011;45733;52.668;6.860;2023-07-13T08:18:42;1.90;;;1.80;;
59856;SDS011;45733;52.668;6.860;2023-07-13T08:21:11;1.95;;;1.85;;
59856;SDS011;45733;52.668;6.860;2023-07-13T08:23:37;2.05;;;1.95;;
59856;SDS011;45733;52.668;6.860;2023-07-13T08:26:07;1.83;;;1.73;;
59856;SDS011;45733;52.668;6.860;2023-07-13T08:28:43;1.90;;;1.80;;
59856;SDS011;45733;52.668;6.860;2023-07-13T08:31:09;1.80;;;1.70;;
59856;SDS011;45733;52.668;6.860;2023-07-13T08:33:35;2.10;;;2.00;;
59856;SDS011;45733;52.668;6.860;2023-07-13T08:36:04;2.30;;;2.20;;
59856;SDS011;45733;52.668;6.860;2023-07-13T08:38:30;2.10;;;2.00;;
59856;SDS011;45733;52.668;6.860;2023-07-13T08:40:56;2.20;;;2.10;;
59856;SDS011;45733;52.668;6.860;2023-07-13T08:43:25;2.10;;;2.00;;
59856;SDS011;45733;52.668;6.860;2023-07-13T08:48:59;2.00;;;1.90;;
59856;SDS011;45733;52.668;6.860;2023-07-13T08:51:45;2.00;;;1.90;;
59856;SDS011;45733;52.668;6.860;2023-07-13T08:54:18;2.00;;;1.90;;
59856;SDS011;45733;52.668;6.860;2023-07-13T08:56:51;1.80;;;1.70;;
59856;SDS011;45733;52.668;6.860;2023-07-13T08:59:20;1.70;;;1.60;;
59856;SDS011;45733;52.668;6.860;2023-07-13T09:01:54;1.70;;;1.60;;
59856;SDS011;45733;52.668;6.860;2023-07-13T09:04:54;1.50;;;1.40;;
59856;SDS011;45733;52.668;6.860;2023-07-13T09:10:28;1.50;;;1.40;;
59856;SDS011;45733;52.668;6.860;2023-07-13T09:12:57;1.50;;;1.40;;
59856;SDS011;45733;52.668;6.860;2023-07-13T09:16:02;1.20;;;1.20;;
59856;SDS011;45733;52.668;6.860;2023-07-13T09:18:42;1.30;;;1.30;;
59856;SDS011;45733;52.668;6.860;2023-07-13T09:21:27;1.42;;;1.35;;
59856;SDS011;45733;52.668;6.860;2023-07-13T09:23:56;1.00;;;1.00;;
59856;SDS011;45733;52.668;6.860;2023-07-13T09:26:42;1.00;;;1.00;;
59856;SDS011;45733;52.668;6.860;2023-07-13T09:29:17;0.90;;;0.90;;
59856;SDS011;45733;52.668;6.860;2023-07-13T09:31:55;0.98;;;0.98;;
59856;SDS011;45733;52.668;6.860;2023-07-13T09:34:25;0.90;;;0.90;;
59856;SDS011;45733;52.668;6.860;2023-07-13T09:36:51;0.90;;;0.90;;
59856;SDS011;45733;52.668;6.860;2023-07-13T09:39:23;0.90;;;0.90;;
59856;SDS011;45733;52.668;6.860;2023-07-13T09:44:36;0.80;;;0.80;;
59856;SDS011;45733;52.668;6.860;2023-07-13T09:47:13;0.98;;;0.98;;
59856;SDS011;45733;52.668;6.860;2023-07-13T09:49:46;1.05;;;1.05;;
59856;SDS011;45733;52.668;6.860;2023-07-13T09:52:12;1.08;;;1.08;;
59856;SDS011;45733;52.668;6.860;2023-07-13T09:54:43;1.17;;;1.17;;
59856;SDS011;45733;52.668;6.860;2023-07-13T09:57:23;1.50;;;1.40;;
59856;SDS011;45733;52.668;6.860;2023-07-13T09:59:51;1.85;;;1.75;;
59856;SDS011;45733;52.668;6.860;2023-07-13T10:02:31;2.03;;;1.92;;
59856;SDS011;45733;52.668;6.860;2023-07-13T10:04:59;2.05;;;1.95;;
59856;SDS011;45733;52.668;6.860;2023-07-13T10:07:26;2.30;;;2.20;;
59856;SDS011;45733;52.668;6.860;2023-07-13T10:09:56;2.45;;;2.35;;
59856;SDS011;45733;52.668;6.860;2023-07-13T10:12:25;2.50;;;2.40;;
59856;SDS011;45733;52.668;6.860;2023-07-13T10:14:56;2.70;;;2.55;;
59856;SDS011;45733;52.668;6.860;2023-07-13T10:17:26;2.60;;;2.47;;
59856;SDS011;45733;52.668;6.860;2023-07-13T10:19:56;2.55;;;2.42;;
59856;SDS011;45733;52.668;6.860;2023-07-13T10:22:45;2.55;;;2.45;;
59856;SDS011;45733;52.668;6.860;2023-07-13T10:25:22;2.40;;;2.30;;
59856;SDS011;45733;52.668;6.860;2023-07-13T10:28:14;2.28;;;2.17;;
59856;SDS011;45733;52.668;6.860;2023-07-13T10:34:12;2.15;;;2.05;;
59856;SDS011;45733;52.668;6.860;2023-07-13T10:36:41;2.15;;;2.05;;
59856;SDS011;45733;52.668;6.860;2023-07-13T10:39:13;1.98;;;1.88;;
59856;SDS011;45733;52.668;6.860;2023-07-13T10:41:58;1.80;;;1.70;;
59856;SDS011;45733;52.668;6.860;2023-07-13T10:44:27;1.67;;;1.58;;
59856;SDS011;45733;52.668;6.860;2023-07-13T10:46:56;1.63;;;1.52;;
59856;SDS011;45733;52.668;6.860;2023-07-13T10:49:31;1.60;;;1.50;;
59856;SDS011;45733;52.668;6.860;2023-07-13T10:51:58;1.40;;;1.40;;
59856;SDS011;45733;52.668;6.860;2023-07-13T10:54:30;1.50;;;1.40;;
59856;SDS011;45733;52.668;6.860;2023-07-13T10:59:46;1.30;;;1.30;;
59856;SDS011;45733;52.668;6.860;2023-07-13T11:02:33;1.30;;;1.30;;
59856;SDS011;45733;52.668;6.860;2023-07-13T11:04:59;1.38;;;1.38;;
59856;SDS011;45733;52.668;6.860;2023-07-13T11:08:11;1.20;;;1.20;;
59856;SDS011;45733;52.668;6.860;2023-07-13T11:10:52;1.20;;;1.20;;
59856;SDS011;45733;52.668;6.860;2023-07-13T11:13:36;1.20;;;1.20;;
59856;SDS011;45733;52.668;6.860;2023-07-13T11:16:13;1.10;;;1.10;;
59856;SDS011;45733;52.668;6.860;2023-07-13T11:21:27;1.10;;;1.10;;
59856;SDS011;45733;52.668;6.860;2023-07-13T11:24:14;1.20;;;1.20;;
59856;SDS011;45733;52.668;6.860;2023-07-13T11:26:42;1.10;;;1.10;;
59856;SDS011;45733;52.668;6.860;2023-07-13T11:31:41;1.42;;;1.40;;
59856;SDS011;45733;52.668;6.860;2023-07-13T11:34:35;1.60;;;1.50;;
59856;SDS011;45733;52.668;6.860;2023-07-13T11:37:03;1.80;;;1.70;;
59856;SDS011;45733;52.668;6.860;2023-07-13T11:39:33;1.90;;;1.80;;
59856;SDS011;45733;52.668;6.860;2023-07-13T11:42:05;1.90;;;1.80;;
59856;SDS011;45733;52.668;6.860;2023-07-13T11:44:41;2.00;;;1.90;;
59856;SDS011;45733;52.668;6.860;2023-07-13T11:47:19;2.03;;;1.92;;
59856;SDS011;45733;52.668;6.860;2023-07-13T11:49:51;2.10;;;2.00;;
59856;SDS011;45733;52.668;6.860;2023-07-13T11:54:57;2.53;;;2.42;;
59856;SDS011;45733;52.668;6.860;2023-07-13T11:57:28;2.33;;;2.22;;
59856;SDS011;45733;52.668;6.860;2023-07-13T11:59:59;2.20;;;2.10;;
59856;SDS011;45733;52.668;6.860;2023-07-13T12:02:32;2.05;;;1.95;;
59856;SDS011;45733;52.668;6.860;2023-07-13T12:05:01;2.03;;;1.92;;
59856;SDS011;45733;52.668;6.860;2023-07-13T12:07:30;2.20;;;2.10;;
59856;SDS011;45733;52.668;6.860;2023-07-13T12:10:03;2.00;;;1.90;;
59856;SDS011;45733;52.668;6.860;2023-07-13T12:12:40;2.13;;;2.03;;
59856;SDS011;45733;52.668;6.860;2023-07-13T12:18:13;2.50;;;2.40;;
59856;SDS011;45733;52.668;6.860;2023-07-13T12:20:41;2.38;;;2.28;;
59856;SDS011;45733;52.668;6.860;2023-07-13T12:25:51;2.17;;;2.08;;
59856;SDS011;45733;52.668;6.860;2023-07-13T12:28:21;2.60;;;2.50;;
59856;SDS011;45733;52.668;6.860;2023-07-13T12:30:48;2.63;;;2.53;;
59856;SDS011;45733;52.668;6.860;2023-07-13T12:33:17;2.33;;;2.22;;
59856;SDS011;45733;52.668;6.860;2023-07-13T12:35:46;2.08;;;1.98;;
59856;SDS011;45733;52.668;6.860;2023-07-13T12:38:15;1.63;;;1.52;;
59856;SDS011;45733;52.668;6.860;2023-07-13T12:40:41;1.33;;;1.33;;
59856;SDS011;45733;52.668;6.860;2023-07-13T12:43:13;1.27;;;1.27;;
59856;SDS011;45733;52.668;6.860;2023-07-13T12:45:59;1.25;;;1.25;;
59856;SDS011;45733;52.668;6.860;2023-07-13T12:48:37;1.20;;;1.20;;
59856;SDS011;45733;52.668;6.860;2023-07-13T12:51:08;1.13;;;1.13;;
59856;SDS011;45733;52.668;6.860;2023-07-13T12:53:38;1.10;;;1.10;;
59856;SDS011;45733;52.668;6.860;2023-07-13T12:56:08;1.20;;;1.20;;
59856;SDS011;45733;52.668;6.860;2023-07-13T12:58:50;1.30;;;1.30;;
59856;SDS011;45733;52.668;6.860;2023-07-13T13:01:22;1.20;;;1.20;;
59856;SDS011;45733;52.668;6.860;2023-07-13T13:03:52;0.90;;;0.90;;
59856;SDS011;45733;52.668;6.860;2023-07-13T13:06:36;0.90;;;0.90;;
59856;SDS011;45733;52.668;6.860;2023-07-13T13:09:02;0.90;;;0.90;;
59856;SDS011;45733;52.668;6.860;2023-07-13T13:11:32;0.88;;;0.88;;
59856;SDS011;45733;52.668;6.860;2023-07-13T13:13:57;0.38;;;0.38;;
59856;SDS011;45733;52.668;6.860;2023-07-13T13:16:33;0.60;;;0.60;;
59856;SDS011;45733;52.668;6.860;2023-07-13T13:19:17;0.30;;;0.30;;
59856;SDS011;45733;52.668;6.860;2023-07-13T13:22:01;0.30;;;0.30;;
59856;SDS011;45733;52.668;6.860;2023-07-13T13:24:30;0.60;;;0.60;;
59856;SDS011;45733;52.668;6.860;2023-07-13T13:27:13;0.43;;;0.43;;
59856;SDS011;45733;52.668;6.860;2023-07-13T13:29:44;0.63;;;0.63;;
59856;SDS011;45733;52.668;6.860;2023-07-13T13:32:15;0.32;;;0.32;;
59856;SDS011;45733;52.668;6.860;2023-07-13T13:34:46;0.30;;;0.30;;
59856;SDS011;45733;52.668;6.860;2023-07-13T13:37:22;0.43;;;0.43;;
59856;SDS011;45733;52.668;6.860;2023-07-13T13:39:56;0.30;;;0.30;;
59856;SDS011;45733;52.668;6.860;2023-07-13T13:42:25;0.45;;;0.45;;
59856;SDS011;45733;52.668;6.860;2023-07-13T13:44:52;0.40;;;0.40;;
59856;SDS011;45733;52.668;6.860;2023-07-13T13:47:51;0.60;;;0.60;;
59856;SDS011;45733;52.668;6.860;2023-07-13T13:50:14;0.47;;;0.47;;
59856;SDS011;45733;52.668;6.860;2023-07-13T13:53:00;0.38;;;0.38;;
59856;SDS011;45733;52.668;6.860;2023-07-13T13:55:30;0.30;;;0.30;;
59856;SDS011;45733;52.668;6.860;2023-07-13T13:57:56;0.30;;;0.30;;
59856;SDS011;45733;52.668;6.860;2023-07-13T14:00:25;0.50;;;0.50;;
59856;SDS011;45733;52.668;6.860;2023-07-13T14:03:15;0.30;;;0.30;;
59856;SDS011;45733;52.668;6.860;2023-07-13T14:05:46;0.30;;;0.30;;
59856;SDS011;45733;52.668;6.860;2023-07-13T14:08:20;0.50;;;0.50;;
59856;SDS011;45733;52.668;6.860;2023-07-13T14:10:47;0.50;;;0.50;;
59856;SDS011;45733;52.668;6.860;2023-07-13T14:13:19;0.30;;;0.30;;
59856;SDS011;45733;52.668;6.860;2023-07-13T14:15:54;0.30;;;0.30;;
59856;SDS011;45733;52.668;6.860;2023-07-13T14:18:23;0.30;;;0.30;;
59856;SDS011;45733;52.668;6.860;2023-07-13T14:23:36;0.43;;;0.43;;
59856;SDS011;45733;52.668;6.860;2023-07-13T14:26:03;0.50;;;0.50;;
59856;SDS011;45733;52.668;6.860;2023-07-13T14:28:38;0.30;;;0.30;;
59856;SDS011;45733;52.668;6.860;2023-07-13T14:31:08;0.50;;;0.50;;
59856;SDS011;45733;52.668;6.860;2023-07-13T14:33:34;0.30;;;0.30;;
59856;SDS011;45733;52.668;6.860;2023-07-13T14:36:12;0.30;;;0.30;;
59856;SDS011;45733;52.668;6.860;2023-07-13T14:38:52;0.35;;;0.35;;
59856;SDS011;45733;52.668;6.860;2023-07-13T14:41:21;0.50;;;0.50;;
59856;SDS011;45733;52.668;6.860;2023-07-13T14:43:50;0.30;;;0.30;;
59856;SDS011;45733;52.668;6.860;2023-07-13T14:46:28;0.30;;;0.30;;
59856;SDS011;45733;52.668;6.860;2023-07-13T14:51:51;0.30;;;0.30;;
59856;SDS011;45733;52.668;6.860;2023-07-13T14:54:19;0.30;;;0.30;;
59856;SDS011;45733;52.668;6.860;2023-07-13T14:56:54;0.32;;;0.32;;
59856;SDS011;45733;52.668;6.860;2023-07-13T14:59:51;0.30;;;0.30;;
59856;SDS011;45733;52.668;6.860;2023-07-13T15:02:33;0.40;;;0.40;;
59856;SDS011;45733;52.668;6.860;2023-07-13T15:05:05;0.30;;;0.30;;
59856;SDS011;45733;52.668;6.860;2023-07-13T15:10:41;0.38;;;0.38;;
59856;SDS011;45733;52.668;6.860;2023-07-13T15:13:23;0.30;;;0.30;;
59856;SDS011;45733;52.668;6.860;2023-07-13T15:19:39;0.70;;;0.70;;
59856;SDS011;45733;52.668;6.860;2023-07-13T15:22:25;0.60;;;0.60;;
59856;SDS011;45733;52.668;6.860;2023-07-13T15:24:51;0.52;;;0.52;;
59856;SDS011;45733;52.668;6.860;2023-07-13T15:27:16;1.23;;;1.23;;
59856;SDS011;45733;52.668;6.860;2023-07-13T15:29:42;0.50;;;0.50;;
59856;SDS011;45733;52.668;6.860;2023-07-13T15:32:13;1.10;;;1.10;;
59856;SDS011;45733;52.668;6.860;2023-07-13T15:34:39;1.50;;;1.40;;
59856;SDS011;45733;52.668;6.860;2023-07-13T15:37:15;0.30;;;0.30;;
59856;SDS011;45733;52.668;6.860;2023-07-13T15:39:42;1.60;;;1.50;;
59856;SDS011;45733;52.668;6.860;2023-07-13T15:42:18;1.27;;;1.27;;
59856;SDS011;45733;52.668;6.860;2023-07-13T15:44:45;0.30;;;0.30;;
59856;SDS011;45733;52.668;6.860;2023-07-13T15:47:12;1.13;;;1.13;;
59856;SDS011;45733;52.668;6.860;2023-07-13T15:49:45;1.13;;;1.13;;
59856;SDS011;45733;52.668;6.860;2023-07-13T15:52:20;0.35;;;0.35;;
59856;SDS011;45733;52.668;6.860;2023-07-13T15:54:50;0.55;;;0.55;;
59856;SDS011;45733;52.668;6.860;2023-07-13T15:57:52;0.60;;;0.60;;
59856;SDS011;45733;52.668;6.860;2023-07-13T16:00:22;0.70;;;0.70;;
59856;SDS011;45733;52.668;6.860;2023-07-13T16:02:58;0.32;;;0.32;;